Polaris — JD2797 — position and weather

sailwx.info

Track history (hours):
 
Tides and Currents Weather Stations Pressure Air Temp Water Temp Dewpoint Dewpoint Depression Visibility Wind Speed Wind Dir Waves Ship Positions

Polaris

Last reported at 2014-Oct-31 09:12 UTC. Time now 2014-Oct-31 22:55 UTC.
Position N 35°19' E 139°38'.

Length 26 m.

MMSI: 431000764.

Date/timePositionNaut miles runAvg speedWind from/ knotsBaromVisibWave heightAir tempDewpointWater temp
2014-Oct-31 09:12N 35°19' E 139°38'910.0
2014-Oct-31 08:21N 35°13' E 139°46'1012.4
2014-Oct-31 07:33N 35°22' E 139°42'5 4.7
2014-Oct-31 06:33N 35°27' E 139°42'9 0.3
2014-Oct-29 23:21N 35°19' E 139°38'8 9.6
2014-Oct-29 22:30N 35°13' E 139°46'1212.4
2014-Oct-29 21:33N 35°25' E 139°44'4 3.7
2014-Oct-29 20:33N 35°21' E 139°42'4 0.1
2014-Oct-28 10:06N 35°19' E 139°38'7 7.0
2014-Oct-28 09:03N 35°15' E 139°46'613.0
2014-Oct-28 08:34N 35°21' E 139°42'2 2.0
2014-Oct-28 07:34N 35°22' E 139°41'5 0.6
2014-Oct-27 23:31N 35°19' E 139°38'9 9.3
2014-Oct-27 22:33N 35°27' E 139°41'5 5.3
2014-Oct-27 21:33N 35°24' E 139°47'14 9.2
2014-Oct-27 20:05N 35°11' E 139°46'712.7
2014-Oct-27 19:32N 35°18' E 139°43'4 4.1
2014-Oct-27 18:33N 35°19' E 139°38'0 0.0
2014-Oct-27 02:27N 35°19' E 139°38'9 9.9
2014-Oct-27 01:33N 35°12' E 139°46'1111.0
2014-Oct-27 00:34N 35°23' E 139°43'2 2.0
2014-Oct-26 23:33N 35°21' E 139°42'4 3.8
2014-Oct-26 22:33N 35°19' E 139°38'0 0.0
2014-Oct-26 21:33N 35°19' E 139°38'6 6.2
2014-Oct-26 20:34N 35°16' E 139°45'6 5.8
2014-Oct-26 19:33N 35°21' E 139°42'4 4.3
2014-Oct-26 18:34N 35°25' E 139°42'7 7.2
2014-Oct-26 17:31N 35°19' E 139°38'0 0.0
2014-Oct-26 15:33N 35°19' E 139°38'0 0.0
2014-Oct-26 14:33N 35°19' E 139°38'0 0.0
2014-Oct-26 13:26N 35°19' E 139°38'9 9.8
2014-Oct-26 12:33N 35°24' E 139°46'7 3.7
2014-Oct-26 10:33N 35°17' E 139°43'4 3.9
2014-Oct-26 09:28N 35°19' E 139°38'0 0.0
2014-Oct-25 09:11N 35°19' E 139°38'711.2
2014-Oct-25 08:33N 35°24' E 139°44'8 4.0
2014-Oct-25 06:32N 35°15' E 139°45'6 6.6
2014-Oct-25 05:33N 35°19' E 139°38'0 0.0
2014-Oct-25 04:29N 35°19' E 139°38'0 0.0
2014-Oct-25 03:31N 35°19' E 139°38'0 0.0
2014-Oct-25 02:32N 35°19' E 139°38'0 0.0
2014-Oct-25 01:33N 35°19' E 139°38'0 0.0
2014-Oct-25 00:33N 35°19' E 139°38'0 0.0
2014-Oct-24 23:33N 35°19' E 139°38'0 0.0
2014-Oct-24 22:33N 35°19' E 139°38'9 8.2
2014-Oct-24 21:28N 35°12' E 139°46'1111.8
2014-Oct-24 20:33N 35°23' E 139°42'2 1.6
2014-Oct-24 19:33N 35°21' E 139°43'5 1.1
2014-Oct-24 15:19N 35°19' E 139°38'0 0.0
2014-Oct-24 09:33N 35°18' E 139°39'7 7.2
2014-Oct-24 08:30N 35°15' E 139°46'1010.7
2014-Oct-24 07:34N 35°24' E 139°43'4 4.2
2014-Oct-24 06:33N 35°28' E 139°45'4 4.0
2014-Oct-24 05:34N 35°27' E 139°40'3 3.0
2014-Oct-24 04:34N 35°25' E 139°42'  
2014-Oct-21 21:34N 35°21' E 139°41'3 2.9
2014-Oct-21 20:33N 35°19' E 139°44'8 7.9
2014-Oct-21 19:33N 35°11' E 139°46'10 9.7
2014-Oct-21 18:33N 35°19' E 139°38'  
Track history (hours):
 
Tides and Currents Weather Stations Pressure Air Temp Water Temp Dewpoint Dewpoint Depression Visibility Wind Speed Wind Dir Waves Ship Positions

Polaris

Last reported at 2014-Oct-31 09:12 UTC. Time now 2014-Oct-31 22:55 UTC.
Position N 35°19' E 139°38'.

Length 26 m.

MMSI: 431000764.

Date/timePositionNaut miles runAvg speedWind from/ knotsBaromVisibWave heightAir tempDewpointWater temp
2014-Oct-31 09:12N 35°19' E 139°38'910.0
2014-Oct-31 08:21N 35°13' E 139°46'1012.4
2014-Oct-31 07:33N 35°22' E 139°42'5 4.7
2014-Oct-31 06:33N 35°27' E 139°42'9 0.3
2014-Oct-29 23:21N 35°19' E 139°38'8 9.6
2014-Oct-29 22:30N 35°13' E 139°46'1212.4
2014-Oct-29 21:33N 35°25' E 139°44'4 3.7
2014-Oct-29 20:33N 35°21' E 139°42'4 0.1
2014-Oct-28 10:06N 35°19' E 139°38'7 7.0
2014-Oct-28 09:03N 35°15' E 139°46'613.0
2014-Oct-28 08:34N 35°21' E 139°42'2 2.0
2014-Oct-28 07:34N 35°22' E 139°41'5 0.6
2014-Oct-27 23:31N 35°19' E 139°38'9 9.3
2014-Oct-27 22:33N 35°27' E 139°41'5 5.3
2014-Oct-27 21:33N 35°24' E 139°47'14 9.2
2014-Oct-27 20:05N 35°11' E 139°46'712.7
2014-Oct-27 19:32N 35°18' E 139°43'4 4.1
2014-Oct-27 18:33N 35°19' E 139°38'0 0.0
2014-Oct-27 02:27N 35°19' E 139°38'9 9.9
2014-Oct-27 01:33N 35°12' E 139°46'1111.0
2014-Oct-27 00:34N 35°23' E 139°43'2 2.0
2014-Oct-26 23:33N 35°21' E 139°42'4 3.8
2014-Oct-26 22:33N 35°19' E 139°38'0 0.0
2014-Oct-26 21:33N 35°19' E 139°38'6 6.2
2014-Oct-26 20:34N 35°16' E 139°45'6 5.8
2014-Oct-26 19:33N 35°21' E 139°42'4 4.3
2014-Oct-26 18:34N 35°25' E 139°42'7 7.2
2014-Oct-26 17:31N 35°19' E 139°38'0 0.0
2014-Oct-26 15:33N 35°19' E 139°38'0 0.0
2014-Oct-26 14:33N 35°19' E 139°38'0 0.0
2014-Oct-26 13:26N 35°19' E 139°38'9 9.8
2014-Oct-26 12:33N 35°24' E 139°46'7 3.7
2014-Oct-26 10:33N 35°17' E 139°43'4 3.9
2014-Oct-26 09:28N 35°19' E 139°38'0 0.0
2014-Oct-25 09:11N 35°19' E 139°38'711.2
2014-Oct-25 08:33N 35°24' E 139°44'8 4.0
2014-Oct-25 06:32N 35°15' E 139°45'6 6.6
2014-Oct-25 05:33N 35°19' E 139°38'0 0.0
2014-Oct-25 04:29N 35°19' E 139°38'0 0.0
2014-Oct-25 03:31N 35°19' E 139°38'0 0.0
2014-Oct-25 02:32N 35°19' E 139°38'0 0.0
2014-Oct-25 01:33N 35°19' E 139°38'0 0.0
2014-Oct-25 00:33N 35°19' E 139°38'0 0.0
2014-Oct-24 23:33N 35°19' E 139°38'0 0.0
2014-Oct-24 22:33N 35°19' E 139°38'9 8.2
2014-Oct-24 21:28N 35°12' E 139°46'1111.8
2014-Oct-24 20:33N 35°23' E 139°42'2 1.6
2014-Oct-24 19:33N 35°21' E 139°43'5 1.1
2014-Oct-24 15:19N 35°19' E 139°38'0 0.0
2014-Oct-24 09:33N 35°18' E 139°39'7 7.2
2014-Oct-24 08:30N 35°15' E 139°46'1010.7
2014-Oct-24 07:34N 35°24' E 139°43'4 4.2
2014-Oct-24 06:33N 35°28' E 139°45'4 4.0
2014-Oct-24 05:34N 35°27' E 139°40'3 3.0
2014-Oct-24 04:34N 35°25' E 139°42'  
2014-Oct-21 21:34N 35°21' E 139°41'3 2.9
2014-Oct-21 20:33N 35°19' E 139°44'8 7.9
2014-Oct-21 19:33N 35°11' E 139°46'10 9.7
2014-Oct-21 18:33N 35°19' E 139°38'  

Dump ship's entire track history